createdAt,value
2019-01-19T00:01:05.347Z,57.63
2019-01-19T00:03:53.001Z,57.65
2019-01-19T00:06:31.126Z,57.68
2019-01-19T00:09:01.899Z,57.71
2019-01-19T00:12:05.160Z,57.69
2019-01-19T00:14:33.561Z,57.69
2019-01-19T00:17:10.890Z,57.72
2019-01-19T00:19:59.071Z,57.85
2019-01-19T00:22:39.510Z,57.83
2019-01-19T00:25:44.563Z,57.87
2019-01-19T00:28:33.756Z,57.93
2019-01-19T00:31:17.142Z,57.82
2019-01-19T00:33:48.704Z,57.87
2019-01-19T00:36:55.706Z,57.92
2019-01-19T00:40:05.295Z,58.01
2019-01-19T00:43:14.140Z,58.11
2019-01-19T00:46:22.625Z,58.07
2019-01-19T00:49:30.940Z,58.01
2019-01-19T00:52:38.132Z,58.16
2019-01-19T00:55:46.536Z,58.30
2019-01-19T00:58:54.880Z,58.35
2019-01-19T01:02:01.882Z,58.37
2019-01-19T01:05:10.226Z,58.30
2019-01-19T01:08:18.614Z,58.24
2019-01-19T01:11:27.026Z,58.28
2019-01-19T01:14:34.015Z,58.25
2019-01-19T01:17:42.431Z,58.33
2019-01-19T01:20:49.435Z,58.38
2019-01-19T01:23:56.524Z,58.44
2019-01-19T01:27:03.512Z,58.53
2019-01-19T01:30:10.965Z,58.51
2019-01-19T01:33:19.344Z,58.47
2019-01-19T01:36:27.746Z,58.50
2019-01-19T01:39:34.732Z,58.57
2019-01-19T01:42:43.108Z,58.60
2019-01-19T01:45:51.426Z,58.60
2019-01-19T01:48:59.879Z,58.57
2019-01-19T01:52:08.256Z,58.70
2019-01-19T01:55:16.602Z,58.73
2019-01-19T01:58:24.918Z,58.73
2019-01-19T02:01:32.072Z,58.72
2019-01-19T02:04:40.384Z,58.85
2019-01-19T02:07:48.735Z,58.83
2019-01-19T02:10:55.795Z,58.78
2019-01-19T02:14:02.884Z,58.76
2019-01-19T02:17:11.268Z,58.80
2019-01-19T02:20:19.676Z,58.81
2019-01-19T02:23:27.992Z,59.04
2019-01-19T02:26:35.172Z,59.12
2019-01-19T02:29:42.244Z,59.11
2019-01-19T02:32:50.566Z,59.21
2019-01-19T02:35:58.883Z,59.25
2019-01-19T02:39:07.333Z,59.26
2019-01-19T02:42:15.609Z,59.36
2019-01-19T02:45:24.276Z,59.25
2019-01-19T02:48:32.583Z,59.13
2019-01-19T02:51:41.010Z,58.99
2019-01-19T02:54:49.325Z,58.91
2019-01-19T02:57:57.842Z,58.86
2019-01-19T03:01:04.827Z,58.80
2019-01-19T03:04:13.166Z,58.72
2019-01-19T03:07:21.535Z,58.56
2019-01-19T03:10:30.314Z,58.46
2019-01-19T03:13:38.678Z,58.38
2019-01-19T03:16:47.067Z,58.43
2019-01-19T03:19:55.390Z,58.47
2019-01-19T03:23:02.404Z,58.39
2019-01-19T03:26:09.397Z,58.34
2019-01-19T03:29:17.887Z,58.38
2019-01-19T03:32:26.263Z,58.40
2019-01-19T03:35:34.692Z,58.36
2019-01-19T03:38:43.095Z,58.43
2019-01-19T03:41:50.281Z,58.42
2019-01-19T03:44:58.603Z,58.53
2019-01-19T03:48:05.704Z,58.62
2019-01-19T03:51:12.693Z,58.70
2019-01-19T03:54:21.044Z,58.68
2019-01-19T03:57:28.033Z,58.84
2019-01-19T04:00:36.368Z,59.01
2019-01-19T04:03:44.810Z,58.98
2019-01-19T04:06:51.846Z,59.02
2019-01-19T04:09:58.838Z,58.99
2019-01-19T04:13:05.919Z,59.19
2019-01-19T04:16:14.247Z,59.18
2019-01-19T04:19:21.293Z,59.11
2019-01-19T04:22:28.289Z,59.03
2019-01-19T04:25:36.644Z,59.00
2019-01-19T04:30:54.167Z,58.96
2019-01-19T04:33:22.571Z,58.92
2019-01-19T04:35:50.978Z,58.96
2019-01-19T04:41:14.305Z,58.98
2019-01-19T04:43:42.702Z,59.24
2019-01-19T04:46:11.113Z,59.49
2019-01-19T04:51:18.571Z,59.90
2019-01-19T04:53:46.945Z,59.99
2019-01-19T04:56:15.446Z,60.10
2019-01-19T04:58:43.862Z,60.22
2019-01-19T05:01:31.599Z,60.43
2019-01-19T05:04:19.561Z,60.43
2019-01-19T05:06:48.035Z,60.28
2019-01-19T05:09:35.850Z,60.19
2019-01-19T05:12:44.161Z,60.19
2019-01-19T05:15:32.001Z,60.04
2019-01-19T05:26:00.573Z,59.76
2019-01-19T05:28:29.040Z,59.72
2019-01-19T05:30:59.151Z,59.72
2019-01-19T05:33:27.737Z,59.70
2019-01-19T05:35:56.130Z,59.68
2019-01-19T05:38:24.523Z,59.67
2019-01-19T05:43:26.586Z,59.71
2019-01-19T05:45:54.981Z,59.78
2019-01-19T05:50:56.995Z,59.76
2019-01-19T05:56:18.213Z,59.84
2019-01-19T05:58:46.609Z,59.89
2019-01-19T06:11:58.144Z,60.12
2019-01-19T06:14:26.540Z,60.08
2019-01-19T06:16:54.950Z,60.13
2019-01-19T06:24:41.309Z,60.26
2019-01-19T06:27:09.709Z,60.16
2019-01-19T06:29:38.103Z,60.24
2019-01-19T06:32:06.514Z,60.35
2019-01-19T06:34:34.917Z,60.45
2019-01-19T06:37:04.356Z,60.42
2019-01-19T06:42:07.024Z,60.44
2019-01-19T06:44:35.422Z,60.43
2019-01-19T06:47:03.840Z,60.32
2019-01-19T06:49:51.576Z,60.41
2019-01-19T06:55:53.059Z,60.32
2019-01-19T07:01:15.997Z,60.64
2019-01-19T07:03:44.391Z,60.82
2019-01-19T07:06:32.168Z,61.08
2019-01-19T07:09:00.569Z,61.08
2019-01-19T07:16:52.337Z,61.46
2019-01-19T07:19:20.759Z,61.47
2019-01-19T07:21:49.169Z,61.64
2019-01-19T07:24:17.565Z,61.74
2019-01-19T07:26:46.001Z,61.75
2019-01-19T07:29:16.186Z,61.82
2019-01-19T07:31:44.582Z,61.86
2019-01-19T07:34:13.024Z,61.92
2019-01-19T07:36:41.423Z,61.99
2019-01-19T07:39:09.822Z,61.89
2019-01-19T07:41:57.590Z,61.62
2019-01-19T07:44:25.990Z,61.62
2019-01-19T07:52:17.697Z,61.39
2019-01-19T07:55:05.409Z,61.26
2019-01-19T07:57:53.062Z,61.28
2019-01-19T08:00:40.923Z,61.25
2019-01-19T08:03:28.664Z,61.20
2019-01-19T08:05:57.087Z,61.20
2019-01-19T08:08:44.833Z,61.02
2019-01-19T08:13:47.642Z,60.97
2019-01-19T08:16:16.067Z,60.83
2019-01-19T08:18:44.460Z,60.69
2019-01-19T08:21:12.904Z,60.79
2019-01-19T08:26:14.944Z,60.79
2019-01-19T08:29:04.248Z,60.76
2019-01-19T08:31:32.642Z,60.77
2019-01-19T08:34:20.488Z,60.74
2019-01-19T08:39:38.216Z,60.69
2019-01-19T08:42:06.683Z,60.64
2019-01-19T08:44:35.216Z,60.60
2019-01-19T08:47:03.722Z,60.60
2019-01-19T08:49:32.123Z,60.68
2019-01-19T08:52:00.595Z,60.67
2019-01-19T08:54:29.066Z,60.83
2019-01-19T08:56:57.447Z,60.76
2019-01-19T08:59:25.847Z,60.65
2019-01-19T09:07:42.482Z,60.52
2019-01-19T09:10:30.277Z,60.52
2019-01-19T09:12:58.788Z,60.67
2019-01-19T09:15:27.199Z,60.77
2019-01-19T09:17:55.625Z,60.91
2019-01-19T09:20:24.110Z,61.18
2019-01-19T09:23:11.634Z,61.45
2019-01-19T09:25:40.076Z,61.52
2019-01-19T09:28:08.489Z,61.73
2019-01-19T09:30:36.900Z,61.78
2019-01-19T09:33:05.404Z,61.80
2019-01-19T09:35:33.812Z,61.98
2019-01-19T09:38:02.294Z,62.04
2019-01-19T09:40:30.745Z,62.17
2019-01-19T09:42:59.221Z,62.21
2019-01-19T09:45:27.619Z,62.07
2019-01-19T09:47:56.062Z,62.08
2019-01-19T09:50:24.613Z,62.01
2019-01-19T09:52:53.079Z,61.99
2019-01-19T09:57:56.026Z,61.98
2019-01-19T10:01:04.570Z,61.85
2019-01-19T10:03:32.986Z,61.85
2019-01-19T10:06:01.388Z,61.80
2019-01-19T10:08:29.816Z,61.86
2019-01-19T10:16:23.038Z,61.73
2019-01-19T10:18:51.450Z,61.73
2019-01-19T10:21:19.841Z,61.75
2019-01-19T10:26:22.730Z,61.67
2019-01-19T10:31:26.843Z,61.58
2019-01-19T10:33:55.232Z,61.63
2019-01-19T10:36:24.798Z,61.63
2019-01-19T10:38:53.854Z,61.56
2019-01-19T10:41:22.253Z,61.48
2019-01-19T10:43:50.652Z,61.55
2019-01-19T10:48:53.220Z,61.33
2019-01-19T10:51:21.705Z,61.29
2019-01-19T10:53:50.101Z,61.31
2019-01-19T10:56:18.504Z,61.29
2019-01-19T11:01:21.304Z,61.24
2019-01-19T11:03:49.704Z,61.33
2019-01-19T11:06:18.104Z,61.47
2019-01-19T11:08:46.497Z,61.39
2019-01-19T11:11:14.932Z,61.41
2019-01-19T11:13:43.336Z,61.56
2019-01-19T11:16:11.736Z,61.82
2019-01-19T11:18:40.246Z,61.85
2019-01-19T11:21:08.706Z,61.95
2019-01-19T11:23:39.949Z,61.76
2019-01-19T11:28:40.905Z,61.31
2019-01-19T11:31:09.312Z,61.19
2019-01-19T11:33:37.864Z,60.64
2019-01-19T11:36:06.357Z,60.72
2019-01-19T11:38:34.745Z,60.56
2019-01-19T11:41:03.159Z,60.57
2019-01-19T11:43:31.740Z,60.53
2019-01-19T11:46:00.208Z,60.27
2019-01-19T11:48:28.673Z,60.24
2019-01-19T11:50:57.168Z,60.18
2019-01-19T11:53:25.561Z,60.01
2019-01-19T11:55:54.088Z,59.97
2019-01-19T11:58:34.431Z,59.86
2019-01-19T12:00:52.727Z,59.82
2019-01-19T12:03:21.201Z,59.76
2019-01-19T12:05:49.670Z,59.58
2019-01-19T12:08:19.677Z,59.39
2019-01-19T12:10:48.309Z,59.27
2019-01-19T12:13:16.738Z,59.29
2019-01-19T12:15:45.114Z,59.06
2019-01-19T12:18:25.484Z,58.77
2019-01-19T12:20:53.889Z,58.38
2019-01-19T12:23:22.459Z,58.36
2019-01-19T12:25:51.770Z,58.11
2019-01-19T12:28:21.029Z,58.16
2019-01-19T12:30:49.425Z,58.07
2019-01-19T12:33:17.920Z,57.64
2019-01-19T12:35:46.315Z,57.37
2019-01-19T12:38:14.713Z,57.14
2019-01-19T12:40:43.147Z,56.92
2019-01-19T12:43:51.463Z,56.60
2019-01-19T12:46:39.077Z,56.51
2019-01-19T12:49:07.479Z,56.69
2019-01-19T12:51:35.875Z,56.69
2019-01-19T12:54:44.307Z,56.45
2019-01-19T12:57:32.021Z,56.04
2019-01-19T13:00:14.585Z,55.89
2019-01-19T13:02:30.551Z,55.72
2019-01-19T13:08:34.320Z,55.19
2019-01-19T13:11:38.087Z,55.33
2019-01-19T13:14:25.867Z,55.47
2019-01-19T13:17:34.193Z,55.40
2019-01-19T13:20:42.868Z,55.14
2019-01-19T13:23:49.861Z,54.91
2019-01-19T13:26:56.873Z,54.81
2019-01-19T13:30:05.199Z,54.75
2019-01-19T13:33:13.880Z,54.71
2019-01-19T13:36:20.869Z,54.72
2019-01-19T13:39:27.969Z,54.72
2019-01-19T13:42:36.289Z,54.78
2019-01-19T13:45:44.727Z,54.79
2019-01-19T13:48:51.724Z,54.39
2019-01-19T13:52:00.071Z,53.92
2019-01-19T13:55:07.102Z,53.49
2019-01-19T13:58:15.481Z,53.00
2019-01-19T14:01:22.469Z,52.59
2019-01-19T14:04:29.520Z,52.75
2019-01-19T14:07:37.901Z,53.00
2019-01-19T14:10:44.941Z,53.04
2019-01-19T14:13:53.261Z,52.77
2019-01-19T14:17:00.283Z,52.92
2019-01-19T14:20:07.276Z,53.11
2019-01-19T14:23:14.434Z,53.00
2019-01-19T14:29:35.826Z,52.33
2019-01-19T14:32:44.142Z,52.11
2019-01-19T14:35:52.485Z,52.32
2019-01-19T14:39:00.815Z,52.66
2019-01-19T14:42:09.389Z,52.96
2019-01-19T14:45:17.709Z,52.99
2019-01-19T14:48:24.804Z,53.04
2019-01-19T14:51:33.229Z,52.94
2019-01-19T14:54:40.429Z,52.77
2019-01-19T14:57:47.427Z,52.81
2019-01-19T15:00:54.430Z,52.97
2019-01-19T15:04:01.419Z,53.19
2019-01-19T15:07:09.761Z,53.49
2019-01-19T15:10:16.752Z,53.88
2019-01-19T15:13:23.892Z,54.08
2019-01-19T15:16:32.215Z,54.16
2019-01-19T15:19:39.547Z,54.25
2019-01-19T15:22:46.709Z,54.15
2019-01-19T15:25:55.258Z,54.14
2019-01-19T15:29:02.189Z,54.34
2019-01-19T15:32:09.217Z,54.43
2019-01-19T15:35:17.539Z,54.47
2019-01-19T15:38:25.967Z,54.62
2019-01-19T15:41:32.971Z,53.83
2019-01-19T15:44:40.410Z,54.39
2019-01-19T15:47:47.395Z,54.52
2019-01-19T15:50:54.729Z,54.59
2019-01-19T15:54:03.056Z,54.83
2019-01-19T15:57:11.401Z,54.99
2019-01-19T16:00:18.404Z,55.12
2019-01-19T16:03:26.892Z,55.30
2019-01-19T16:06:33.963Z,55.59
2019-01-19T16:09:41.080Z,55.75
2019-01-19T16:12:48.071Z,55.95
2019-01-19T16:15:56.672Z,56.18
2019-01-19T16:19:03.674Z,56.19
2019-01-19T16:21:43.138Z,56.26
2019-01-19T16:24:51.522Z,56.36
2019-01-19T16:27:58.556Z,56.48
2019-01-19T16:31:05.548Z,56.62
2019-01-19T16:34:12.604Z,56.76
2019-01-19T16:37:20.924Z,56.76
2019-01-19T16:40:28.275Z,56.85
2019-01-19T16:43:35.264Z,56.93
2019-01-19T16:46:44.879Z,56.91
2019-01-19T16:49:53.741Z,56.89
2019-01-19T16:53:02.170Z,56.96
2019-01-19T16:56:10.486Z,57.08
2019-01-19T16:59:17.576Z,57.17
2019-01-19T17:02:24.569Z,57.23
2019-01-19T17:05:36.406Z,57.31
2019-01-19T17:08:43.335Z,57.22
2019-01-19T17:11:50.347Z,57.23
2019-01-19T17:14:58.460Z,57.26
2019-01-19T17:18:06.863Z,57.38
2019-01-19T17:21:13.856Z,57.44
2019-01-19T17:24:20.881Z,57.53
2019-01-19T17:27:27.900Z,57.65
2019-01-19T17:30:36.358Z,57.69
2019-01-19T17:33:44.737Z,57.79
2019-01-19T17:36:51.831Z,57.86
2019-01-19T17:39:58.834Z,57.77
2019-01-19T17:43:07.184Z,57.91
2019-01-19T17:46:14.199Z,58.14
2019-01-19T17:49:21.223Z,58.33
2019-01-19T17:52:28.219Z,58.38
2019-01-19T17:55:36.597Z,58.29
2019-01-19T17:58:44.920Z,58.40
2019-01-19T18:01:52.004Z,58.44
2019-01-19T18:04:58.999Z,58.49
2019-01-19T18:08:07.350Z,58.74
2019-01-19T18:11:14.347Z,59.19
2019-01-19T18:14:21.693Z,59.46
2019-01-19T18:17:30.016Z,59.58
2019-01-19T18:20:38.420Z,59.73
2019-01-19T18:23:46.749Z,59.88
2019-01-19T18:26:55.195Z,59.96
2019-01-19T18:30:02.199Z,60.01
2019-01-19T18:33:09.222Z,60.01
2019-01-19T18:36:16.217Z,60.01
2019-01-19T18:39:23.243Z,59.97
2019-01-19T18:42:31.570Z,60.09
2019-01-19T18:45:38.588Z,60.12
2019-01-19T18:48:45.608Z,60.05
2019-01-19T18:51:52.693Z,59.82
2019-01-19T18:55:01.019Z,59.67
2019-01-19T18:58:09.503Z,59.70
2019-01-19T19:01:17.886Z,59.83
2019-01-19T19:04:24.997Z,59.96
2019-01-19T19:07:32.061Z,60.17
2019-01-19T19:10:39.159Z,60.35
2019-01-19T19:13:47.503Z,60.31
2019-01-19T19:16:54.579Z,60.26
2019-01-19T19:20:02.946Z,60.33
2019-01-19T19:23:11.312Z,60.45
2019-01-19T19:26:18.315Z,60.60
2019-01-19T19:29:25.358Z,60.74
2019-01-19T19:32:33.682Z,60.77
2019-01-19T19:35:42.121Z,60.75
2019-01-19T19:38:49.110Z,60.62
2019-01-19T19:41:56.125Z,60.62
2019-01-19T19:45:04.446Z,60.74
2019-01-19T19:48:12.946Z,60.83
2019-01-19T19:51:19.948Z,60.84
2019-01-19T19:56:21.514Z,60.81
2019-01-19T20:01:24.222Z,60.90
2019-01-19T20:03:52.646Z,61.00
2019-01-19T20:06:21.052Z,61.02
2019-01-19T20:08:49.457Z,61.04
2019-01-19T20:11:17.879Z,61.04
2019-01-19T20:13:46.310Z,60.94
2019-01-19T20:16:14.692Z,60.80
2019-01-19T20:18:43.131Z,60.66
2019-01-19T20:21:11.531Z,60.64
2019-01-19T20:23:39.936Z,60.75
2019-01-19T20:26:08.378Z,60.79
2019-01-19T20:28:36.790Z,60.83
2019-01-19T20:31:05.273Z,60.79
2019-01-19T20:33:33.702Z,60.67
2019-01-19T20:36:02.170Z,60.70
2019-01-19T20:38:30.579Z,60.82
2019-01-19T20:40:59.052Z,60.88
2019-01-19T20:43:27.446Z,60.85
2019-01-19T20:45:55.855Z,60.83
2019-01-19T20:51:22.275Z,60.75
2019-01-19T20:53:50.679Z,60.89
2019-01-19T20:56:19.086Z,61.08
2019-01-19T20:58:47.519Z,61.23
2019-01-19T21:01:15.925Z,61.42
2019-01-19T21:03:44.329Z,61.53
2019-01-19T21:06:12.768Z,61.63
2019-01-19T21:08:41.187Z,61.62
2019-01-19T21:11:09.587Z,61.68
2019-01-19T21:16:11.511Z,61.65
2019-01-19T21:18:39.975Z,61.79
2019-01-19T21:26:50.845Z,62.01
2019-01-19T21:29:19.280Z,61.86
2019-01-19T21:31:47.685Z,61.83
2019-01-19T21:34:16.086Z,61.71
2019-01-19T21:36:44.521Z,61.54
2019-01-19T21:39:12.940Z,61.40
2019-01-19T21:41:41.398Z,61.53
2019-01-19T21:46:44.054Z,61.90
2019-01-19T21:49:12.538Z,62.08
2019-01-19T21:51:40.931Z,62.02
2019-01-19T21:54:09.580Z,62.03
2019-01-19T21:59:32.730Z,62.45
2019-01-19T22:02:01.170Z,62.32
2019-01-19T22:04:29.570Z,62.29
2019-01-19T22:06:57.975Z,62.23
2019-01-19T22:09:26.425Z,62.19
2019-01-19T22:11:54.838Z,62.29
2019-01-19T22:14:42.695Z,62.15
2019-01-19T22:17:11.108Z,62.20
2019-01-19T22:19:39.515Z,62.46
2019-01-19T22:22:27.210Z,62.34
2019-01-19T22:24:55.616Z,62.23
2019-01-19T22:30:53.161Z,62.51
2019-01-19T22:36:10.740Z,62.62
2019-01-19T22:38:39.145Z,62.61
2019-01-19T22:41:07.546Z,62.85
2019-01-19T22:46:09.754Z,62.89
2019-01-19T22:48:38.278Z,62.61
2019-01-19T22:51:11.162Z,63.06
2019-01-19T22:53:36.823Z,63.06
2019-01-19T22:56:05.335Z,62.91
2019-01-19T22:58:33.756Z,63.00
2019-01-19T23:01:42.185Z,63.12
2019-01-19T23:04:10.590Z,63.13
2019-01-19T23:06:39.000Z,63.03
2019-01-19T23:09:47.429Z,63.07
2019-01-19T23:12:15.852Z,63.13
2019-01-19T23:20:47.687Z,63.15
2019-01-19T23:25:50.561Z,62.76
2019-01-19T23:30:52.578Z,62.99
2019-01-19T23:33:20.997Z,62.99
2019-01-19T23:38:23.562Z,62.88
2019-01-19T23:43:45.895Z,62.97
2019-01-19T23:46:14.321Z,63.09
2019-01-19T23:48:42.725Z,63.28
2019-01-19T23:51:11.132Z,63.32
2019-01-19T23:56:13.803Z,63.62
2019-01-19T23:58:42.243Z,63.57
